sensor_id;sensor_type;location;lat;lon;timestamp;P1;durP1;ratioP1;P2;durP2;ratioP2
74523;SDS011;63074;44.696;10.358;2022-11-20T00:00:11;30.08;;;15.65;;
74523;SDS011;63074;44.696;10.358;2022-11-20T00:02:37;33.83;;;18.35;;
74523;SDS011;63074;44.696;10.358;2022-11-20T00:05:04;37.10;;;19.98;;
74523;SDS011;63074;44.696;10.358;2022-11-20T00:07:30;44.13;;;21.60;;
74523;SDS011;63074;44.696;10.358;2022-11-20T00:09:57;38.58;;;20.55;;
74523;SDS011;63074;44.696;10.358;2022-11-20T02:29:02;30.73;;;15.05;;
74523;SDS011;63074;44.696;10.358;2022-11-20T02:31:29;30.05;;;15.57;;
74523;SDS011;63074;44.696;10.358;2022-11-20T02:34:00;30.35;;;14.65;;
74523;SDS011;63074;44.696;10.358;2022-11-20T02:36:26;29.10;;;15.45;;
74523;SDS011;63074;44.696;10.358;2022-11-20T02:38:53;26.58;;;15.25;;
74523;SDS011;63074;44.696;10.358;2022-11-20T02:41:20;29.30;;;15.48;;
74523;SDS011;63074;44.696;10.358;2022-11-20T02:43:47;28.25;;;15.10;;
74523;SDS011;63074;44.696;10.358;2022-11-20T02:46:13;30.48;;;15.20;;
74523;SDS011;63074;44.696;10.358;2022-11-20T02:48:39;29.02;;;15.23;;
74523;SDS011;63074;44.696;10.358;2022-11-20T02:51:05;26.23;;;14.32;;
74523;SDS011;63074;44.696;10.358;2022-11-20T02:53:31;27.95;;;14.80;;
74523;SDS011;63074;44.696;10.358;2022-11-20T02:55:57;29.23;;;15.27;;
74523;SDS011;63074;44.696;10.358;2022-11-20T02:58:23;24.13;;;13.48;;
74523;SDS011;63074;44.696;10.358;2022-11-20T03:00:50;27.75;;;15.10;;
74523;SDS011;63074;44.696;10.358;2022-11-20T03:03:17;24.13;;;14.18;;
74523;SDS011;63074;44.696;10.358;2022-11-20T03:05:43;27.80;;;15.93;;
74523;SDS011;63074;44.696;10.358;2022-11-20T03:08:09;31.15;;;15.88;;
74523;SDS011;63074;44.696;10.358;2022-11-20T03:10:35;30.30;;;15.68;;
74523;SDS011;63074;44.696;10.358;2022-11-20T03:13:02;31.20;;;17.25;;
74523;SDS011;63074;44.696;10.358;2022-11-20T03:15:28;28.50;;;16.08;;
74523;SDS011;63074;44.696;10.358;2022-11-20T03:17:54;35.65;;;17.88;;
74523;SDS011;63074;44.696;10.358;2022-11-20T03:20:21;30.20;;;16.75;;
74523;SDS011;63074;44.696;10.358;2022-11-20T03:22:48;32.42;;;18.40;;
74523;SDS011;63074;44.696;10.358;2022-11-20T03:25:14;32.33;;;17.63;;
74523;SDS011;63074;44.696;10.358;2022-11-20T03:27:40;31.10;;;17.88;;
74523;SDS011;63074;44.696;10.358;2022-11-20T03:30:06;32.10;;;15.88;;
74523;SDS011;63074;44.696;10.358;2022-11-20T03:32:33;31.35;;;16.17;;
74523;SDS011;63074;44.696;10.358;2022-11-20T03:34:59;31.02;;;16.23;;
74523;SDS011;63074;44.696;10.358;2022-11-20T03:37:25;35.03;;;17.35;;
74523;SDS011;63074;44.696;10.358;2022-11-20T03:39:51;34.00;;;17.95;;
74523;SDS011;63074;44.696;10.358;2022-11-20T03:42:17;32.88;;;18.08;;
74523;SDS011;63074;44.696;10.358;2022-11-20T03:45:02;31.27;;;17.63;;
74523;SDS011;63074;44.696;10.358;2022-11-20T03:47:29;30.20;;;17.67;;
74523;SDS011;63074;44.696;10.358;2022-11-20T03:49:55;27.30;;;16.75;;
74523;SDS011;63074;44.696;10.358;2022-11-20T03:52:21;29.15;;;16.70;;
74523;SDS011;63074;44.696;10.358;2022-11-20T03:54:47;28.52;;;14.55;;
74523;SDS011;63074;44.696;10.358;2022-11-20T03:57:13;28.40;;;15.40;;
74523;SDS011;63074;44.696;10.358;2022-11-20T03:59:40;27.98;;;15.35;;
74523;SDS011;63074;44.696;10.358;2022-11-20T04:02:06;26.55;;;14.70;;
74523;SDS011;63074;44.696;10.358;2022-11-20T04:04:32;26.42;;;14.40;;
74523;SDS011;63074;44.696;10.358;2022-11-20T04:06:58;25.45;;;14.02;;
74523;SDS011;63074;44.696;10.358;2022-11-20T04:09:24;25.00;;;14.88;;
74523;SDS011;63074;44.696;10.358;2022-11-20T04:11:50;24.45;;;13.90;;
74523;SDS011;63074;44.696;10.358;2022-11-20T04:14:16;27.05;;;13.38;;
74523;SDS011;63074;44.696;10.358;2022-11-20T04:16:43;24.55;;;13.98;;
74523;SDS011;63074;44.696;10.358;2022-11-20T04:19:10;23.30;;;13.43;;
74523;SDS011;63074;44.696;10.358;2022-11-20T04:21:37;22.20;;;13.18;;
74523;SDS011;63074;44.696;10.358;2022-11-20T04:24:04;23.98;;;14.07;;
74523;SDS011;63074;44.696;10.358;2022-11-20T04:26:30;21.92;;;12.95;;
74523;SDS011;63074;44.696;10.358;2022-11-20T04:28:57;22.88;;;12.55;;
74523;SDS011;63074;44.696;10.358;2022-11-20T04:31:24;22.42;;;12.80;;
74523;SDS011;63074;44.696;10.358;2022-11-20T04:33:52;24.73;;;14.02;;
74523;SDS011;63074;44.696;10.358;2022-11-20T04:36:20;20.80;;;13.30;;
74523;SDS011;63074;44.696;10.358;2022-11-20T04:38:54;21.88;;;12.82;;
74523;SDS011;63074;44.696;10.358;2022-11-20T04:41:22;21.20;;;12.73;;
74523;SDS011;63074;44.696;10.358;2022-11-20T04:43:51;19.30;;;12.05;;
74523;SDS011;63074;44.696;10.358;2022-11-20T04:46:23;19.75;;;11.55;;
74523;SDS011;63074;44.696;10.358;2022-11-20T04:48:51;20.98;;;11.75;;
74523;SDS011;63074;44.696;10.358;2022-11-20T04:51:17;22.08;;;11.70;;
74523;SDS011;63074;44.696;10.358;2022-11-20T04:53:43;22.17;;;12.38;;
74523;SDS011;63074;44.696;10.358;2022-11-20T04:56:11;23.58;;;12.18;;
74523;SDS011;63074;44.696;10.358;2022-11-20T04:58:38;21.27;;;11.02;;
74523;SDS011;63074;44.696;10.358;2022-11-20T05:01:06;20.23;;;11.70;;
74523;SDS011;63074;44.696;10.358;2022-11-20T05:03:40;20.65;;;11.00;;
74523;SDS011;63074;44.696;10.358;2022-11-20T05:06:07;19.50;;;10.60;;
74523;SDS011;63074;44.696;10.358;2022-11-20T05:08:35;17.15;;;10.25;;
74523;SDS011;63074;44.696;10.358;2022-11-20T05:13:38;17.00;;;10.75;;
74523;SDS011;63074;44.696;10.358;2022-11-20T05:16:06;18.10;;;10.88;;
74523;SDS011;63074;44.696;10.358;2022-11-20T05:18:34;16.98;;;11.45;;
74523;SDS011;63074;44.696;10.358;2022-11-20T05:21:01;20.08;;;10.55;;
74523;SDS011;63074;44.696;10.358;2022-11-20T05:23:30;21.55;;;11.10;;
74523;SDS011;63074;44.696;10.358;2022-11-20T05:25:58;17.92;;;10.40;;
74523;SDS011;63074;44.696;10.358;2022-11-20T05:28:25;20.17;;;11.40;;
74523;SDS011;63074;44.696;10.358;2022-11-20T05:30:52;18.92;;;11.07;;
74523;SDS011;63074;44.696;10.358;2022-11-20T05:33:19;19.23;;;10.75;;
74523;SDS011;63074;44.696;10.358;2022-11-20T05:35:45;17.45;;;10.82;;
74523;SDS011;63074;44.696;10.358;2022-11-20T05:38:13;19.42;;;10.25;;
74523;SDS011;63074;44.696;10.358;2022-11-20T05:40:39;18.90;;;10.65;;
74523;SDS011;63074;44.696;10.358;2022-11-20T05:43:06;17.60;;;10.93;;
74523;SDS011;63074;44.696;10.358;2022-11-20T05:45:32;18.35;;;10.25;;
74523;SDS011;63074;44.696;10.358;2022-11-20T05:47:58;20.83;;;11.00;;
74523;SDS011;63074;44.696;10.358;2022-11-20T05:50:26;20.98;;;11.15;;
74523;SDS011;63074;44.696;10.358;2022-11-20T05:52:53;19.55;;;10.05;;
74523;SDS011;63074;44.696;10.358;2022-11-20T05:55:19;19.10;;;11.45;;
74523;SDS011;63074;44.696;10.358;2022-11-20T05:57:45;19.90;;;10.20;;
74523;SDS011;63074;44.696;10.358;2022-11-20T06:00:11;20.85;;;10.65;;
74523;SDS011;63074;44.696;10.358;2022-11-20T06:02:38;18.92;;;11.32;;
74523;SDS011;63074;44.696;10.358;2022-11-20T06:05:04;18.75;;;9.90;;
74523;SDS011;63074;44.696;10.358;2022-11-20T06:07:30;21.00;;;11.40;;
74523;SDS011;63074;44.696;10.358;2022-11-20T06:09:57;22.25;;;10.50;;
74523;SDS011;63074;44.696;10.358;2022-11-20T06:12:23;20.60;;;11.00;;
74523;SDS011;63074;44.696;10.358;2022-11-20T06:14:49;21.38;;;11.35;;
74523;SDS011;63074;44.696;10.358;2022-11-20T06:17:15;19.73;;;9.77;;
74523;SDS011;63074;44.696;10.358;2022-11-20T06:19:41;15.48;;;8.95;;
74523;SDS011;63074;44.696;10.358;2022-11-20T06:22:07;21.10;;;10.60;;
74523;SDS011;63074;44.696;10.358;2022-11-20T06:24:33;16.75;;;8.77;;
74523;SDS011;63074;44.696;10.358;2022-11-20T06:26:59;21.60;;;10.40;;
74523;SDS011;63074;44.696;10.358;2022-11-20T06:29:26;19.42;;;10.40;;
74523;SDS011;63074;44.696;10.358;2022-11-20T06:31:52;18.98;;;9.93;;
74523;SDS011;63074;44.696;10.358;2022-11-20T06:34:18;20.08;;;10.48;;
74523;SDS011;63074;44.696;10.358;2022-11-20T06:36:44;17.67;;;10.27;;
74523;SDS011;63074;44.696;10.358;2022-11-20T06:39:10;17.33;;;8.77;;
74523;SDS011;63074;44.696;10.358;2022-11-20T06:41:36;16.25;;;9.02;;
74523;SDS011;63074;44.696;10.358;2022-11-20T06:44:03;15.27;;;8.32;;
74523;SDS011;63074;44.696;10.358;2022-11-20T06:46:30;12.93;;;6.82;;
74523;SDS011;63074;44.696;10.358;2022-11-20T06:48:57;14.68;;;7.68;;
74523;SDS011;63074;44.696;10.358;2022-11-20T06:51:23;14.75;;;8.02;;
74523;SDS011;63074;44.696;10.358;2022-11-20T06:53:49;17.92;;;8.40;;
74523;SDS011;63074;44.696;10.358;2022-11-20T06:56:15;16.08;;;9.15;;
74523;SDS011;63074;44.696;10.358;2022-11-20T06:58:42;14.45;;;7.25;;
74523;SDS011;63074;44.696;10.358;2022-11-20T07:01:12;13.70;;;7.85;;
74523;SDS011;63074;44.696;10.358;2022-11-20T07:03:39;13.23;;;6.90;;
74523;SDS011;63074;44.696;10.358;2022-11-20T07:06:06;15.32;;;7.32;;
74523;SDS011;63074;44.696;10.358;2022-11-20T07:08:33;15.30;;;7.78;;
74523;SDS011;63074;44.696;10.358;2022-11-20T07:11:01;16.95;;;8.45;;
74523;SDS011;63074;44.696;10.358;2022-11-20T07:13:29;16.40;;;9.23;;
74523;SDS011;63074;44.696;10.358;2022-11-20T07:16:00;21.23;;;10.85;;
74523;SDS011;63074;44.696;10.358;2022-11-20T07:18:28;18.48;;;10.52;;
74523;SDS011;63074;44.696;10.358;2022-11-20T07:20:54;21.58;;;10.98;;
74523;SDS011;63074;44.696;10.358;2022-11-20T07:23:20;21.58;;;10.48;;
74523;SDS011;63074;44.696;10.358;2022-11-20T07:25:47;20.52;;;10.40;;
74523;SDS011;63074;44.696;10.358;2022-11-20T07:28:13;17.25;;;10.27;;
74523;SDS011;63074;44.696;10.358;2022-11-20T07:30:39;21.70;;;10.43;;
74523;SDS011;63074;44.696;10.358;2022-11-20T07:33:05;20.13;;;11.50;;
74523;SDS011;63074;44.696;10.358;2022-11-20T07:35:31;20.52;;;10.45;;
74523;SDS011;63074;44.696;10.358;2022-11-20T07:37:57;21.10;;;11.98;;
74523;SDS011;63074;44.696;10.358;2022-11-20T07:40:24;20.55;;;11.80;;
74523;SDS011;63074;44.696;10.358;2022-11-20T07:42:51;18.50;;;10.95;;
74523;SDS011;63074;44.696;10.358;2022-11-20T07:45:19;21.13;;;11.15;;
74523;SDS011;63074;44.696;10.358;2022-11-20T07:47:46;18.40;;;9.45;;
74523;SDS011;63074;44.696;10.358;2022-11-20T07:50:13;19.30;;;11.25;;
74523;SDS011;63074;44.696;10.358;2022-11-20T07:52:40;22.02;;;12.30;;
74523;SDS011;63074;44.696;10.358;2022-11-20T07:55:06;21.23;;;11.05;;
74523;SDS011;63074;44.696;10.358;2022-11-20T07:57:34;19.23;;;10.60;;
74523;SDS011;63074;44.696;10.358;2022-11-20T08:00:00;21.50;;;11.23;;
74523;SDS011;63074;44.696;10.358;2022-11-20T08:02:27;17.88;;;9.93;;
74523;SDS011;63074;44.696;10.358;2022-11-20T08:04:53;19.23;;;9.77;;
74523;SDS011;63074;44.696;10.358;2022-11-20T08:07:36;19.45;;;11.30;;
74523;SDS011;63074;44.696;10.358;2022-11-20T08:10:03;20.73;;;10.35;;
74523;SDS011;63074;44.696;10.358;2022-11-20T08:12:30;21.05;;;11.63;;
74523;SDS011;63074;44.696;10.358;2022-11-20T08:15:15;17.67;;;10.55;;
74523;SDS011;63074;44.696;10.358;2022-11-20T08:17:41;18.40;;;10.05;;
74523;SDS011;63074;44.696;10.358;2022-11-20T08:20:08;21.60;;;11.68;;
74523;SDS011;63074;44.696;10.358;2022-11-20T09:08:15;26.67;;;13.68;;
74523;SDS011;63074;44.696;10.358;2022-11-20T09:10:42;25.08;;;12.00;;
74523;SDS011;63074;44.696;10.358;2022-11-20T09:13:15;25.23;;;13.27;;
74523;SDS011;63074;44.696;10.358;2022-11-20T09:15:41;22.80;;;11.98;;
74523;SDS011;63074;44.696;10.358;2022-11-20T09:18:08;26.58;;;13.50;;
74523;SDS011;63074;44.696;10.358;2022-11-20T09:20:34;30.27;;;17.60;;
74523;SDS011;63074;44.696;10.358;2022-11-20T09:23:00;27.42;;;14.50;;
74523;SDS011;63074;44.696;10.358;2022-11-20T09:25:26;26.65;;;12.85;;
74523;SDS011;63074;44.696;10.358;2022-11-20T09:27:56;27.58;;;14.57;;
74523;SDS011;63074;44.696;10.358;2022-11-20T09:30:26;26.63;;;13.52;;
74523;SDS011;63074;44.696;10.358;2022-11-20T09:32:52;26.48;;;12.98;;
74523;SDS011;63074;44.696;10.358;2022-11-20T09:35:19;30.67;;;15.45;;
74523;SDS011;63074;44.696;10.358;2022-11-20T09:37:45;25.73;;;13.30;;
74523;SDS011;63074;44.696;10.358;2022-11-20T09:40:17;28.08;;;14.23;;
74523;SDS011;63074;44.696;10.358;2022-11-20T09:56:08;27.63;;;14.57;;
74523;SDS011;63074;44.696;10.358;2022-11-20T09:58:42;34.25;;;15.50;;
74523;SDS011;63074;44.696;10.358;2022-11-20T10:01:30;28.08;;;13.68;;
74523;SDS011;63074;44.696;10.358;2022-11-20T10:04:10;31.20;;;15.25;;
74523;SDS011;63074;44.696;10.358;2022-11-20T10:07:04;31.80;;;14.18;;
74523;SDS011;63074;44.696;10.358;2022-11-20T10:09:40;31.15;;;14.10;;
74523;SDS011;63074;44.696;10.358;2022-11-20T10:20:47;29.08;;;14.45;;
74523;SDS011;63074;44.696;10.358;2022-11-20T10:26:32;33.60;;;16.67;;
74523;SDS011;63074;44.696;10.358;2022-11-20T10:32:16;36.97;;;15.93;;
74523;SDS011;63074;44.696;10.358;2022-11-20T10:34:47;33.00;;;16.42;;
74523;SDS011;63074;44.696;10.358;2022-11-20T10:37:23;32.38;;;15.60;;
74523;SDS011;63074;44.696;10.358;2022-11-20T10:39:53;33.72;;;15.27;;
74523;SDS011;63074;44.696;10.358;2022-11-20T10:42:41;34.03;;;15.85;;
74523;SDS011;63074;44.696;10.358;2022-11-20T10:47:50;34.60;;;16.67;;
74523;SDS011;63074;44.696;10.358;2022-11-20T10:50:21;33.90;;;15.27;;
74523;SDS011;63074;44.696;10.358;2022-11-20T10:55:45;34.08;;;15.90;;
74523;SDS011;63074;44.696;10.358;2022-11-20T11:01:03;32.97;;;15.65;;
74523;SDS011;63074;44.696;10.358;2022-11-20T11:03:31;32.20;;;15.45;;
74523;SDS011;63074;44.696;10.358;2022-11-20T11:06:07;34.28;;;16.13;;
74523;SDS011;63074;44.696;10.358;2022-11-20T11:08:46;34.70;;;16.15;;
74523;SDS011;63074;44.696;10.358;2022-11-20T11:14:14;34.28;;;16.98;;
74523;SDS011;63074;44.696;10.358;2022-11-20T11:20:14;36.95;;;16.25;;
74523;SDS011;63074;44.696;10.358;2022-11-20T11:22:56;35.08;;;16.15;;
74523;SDS011;63074;44.696;10.358;2022-11-20T11:25:33;31.90;;;15.98;;
74523;SDS011;63074;44.696;10.358;2022-11-20T11:28:20;31.20;;;16.98;;
74523;SDS011;63074;44.696;10.358;2022-11-20T11:30:55;35.78;;;17.08;;
74523;SDS011;63074;44.696;10.358;2022-11-20T11:35:58;36.75;;;16.60;;
74523;SDS011;63074;44.696;10.358;2022-11-20T11:38:30;34.65;;;17.02;;
74523;SDS011;63074;44.696;10.358;2022-11-20T11:41:02;34.60;;;16.73;;
74523;SDS011;63074;44.696;10.358;2022-11-20T11:43:33;35.15;;;17.10;;
74523;SDS011;63074;44.696;10.358;2022-11-20T11:54:38;38.15;;;18.52;;
74523;SDS011;63074;44.696;10.358;2022-11-20T12:05:33;33.40;;;17.67;;
74523;SDS011;63074;44.696;10.358;2022-11-20T12:08:15;34.60;;;18.13;;
74523;SDS011;63074;44.696;10.358;2022-11-20T12:10:57;31.88;;;16.33;;
74523;SDS011;63074;44.696;10.358;2022-11-20T12:16:13;31.40;;;15.90;;
74523;SDS011;63074;44.696;10.358;2022-11-20T12:24:17;30.10;;;16.27;;
74523;SDS011;63074;44.696;10.358;2022-11-20T12:34:53;31.90;;;16.95;;
74523;SDS011;63074;44.696;10.358;2022-11-20T12:53:28;28.02;;;14.93;;
74523;SDS011;63074;44.696;10.358;2022-11-20T13:04:45;30.27;;;16.52;;
74523;SDS011;63074;44.696;10.358;2022-11-20T13:07:20;26.48;;;15.55;;
74523;SDS011;63074;44.696;10.358;2022-11-20T13:09:52;28.23;;;16.48;;
74523;SDS011;63074;44.696;10.358;2022-11-20T13:17:58;25.65;;;16.15;;
74523;SDS011;63074;44.696;10.358;2022-11-20T13:20:29;27.50;;;16.25;;
74523;SDS011;63074;44.696;10.358;2022-11-20T13:22:58;29.30;;;16.13;;
74523;SDS011;63074;44.696;10.358;2022-11-20T13:25:28;26.90;;;16.40;;
74523;SDS011;63074;44.696;10.358;2022-11-20T13:30:49;26.70;;;15.95;;
74523;SDS011;63074;44.696;10.358;2022-11-20T13:33:33;25.63;;;15.07;;
74523;SDS011;63074;44.696;10.358;2022-11-20T13:38:40;27.10;;;16.70;;
74523;SDS011;63074;44.696;10.358;2022-11-20T13:41:34;30.75;;;19.15;;
74523;SDS011;63074;44.696;10.358;2022-11-20T13:44:29;29.33;;;17.25;;
74523;SDS011;63074;44.696;10.358;2022-11-20T13:47:27;28.65;;;18.02;;
74523;SDS011;63074;44.696;10.358;2022-11-20T13:49:57;28.25;;;18.17;;
74523;SDS011;63074;44.696;10.358;2022-11-20T14:01:11;30.98;;;19.08;;
74523;SDS011;63074;44.696;10.358;2022-11-20T14:03:45;29.05;;;17.42;;
74523;SDS011;63074;44.696;10.358;2022-11-20T14:06:28;31.23;;;18.20;;
74523;SDS011;63074;44.696;10.358;2022-11-20T14:08:56;30.23;;;18.95;;
74523;SDS011;63074;44.696;10.358;2022-11-20T14:11:24;30.17;;;18.65;;
74523;SDS011;63074;44.696;10.358;2022-11-20T14:13:53;32.78;;;18.42;;
74523;SDS011;63074;44.696;10.358;2022-11-20T14:16:25;33.60;;;18.98;;
74523;SDS011;63074;44.696;10.358;2022-11-20T14:18:53;32.72;;;20.73;;
74523;SDS011;63074;44.696;10.358;2022-11-20T14:21:43;33.35;;;20.08;;
74523;SDS011;63074;44.696;10.358;2022-11-20T14:24:12;32.40;;;20.50;;
74523;SDS011;63074;44.696;10.358;2022-11-20T14:26:46;31.33;;;18.92;;
74523;SDS011;63074;44.696;10.358;2022-11-20T14:29:23;31.83;;;19.25;;
74523;SDS011;63074;44.696;10.358;2022-11-20T14:31:57;30.70;;;18.95;;
74523;SDS011;63074;44.696;10.358;2022-11-20T14:34:27;29.52;;;19.52;;
74523;SDS011;63074;44.696;10.358;2022-11-20T14:36:59;34.47;;;19.98;;
74523;SDS011;63074;44.696;10.358;2022-11-20T14:39:34;35.55;;;20.55;;
74523;SDS011;63074;44.696;10.358;2022-11-20T14:42:03;33.88;;;20.50;;
74523;SDS011;63074;44.696;10.358;2022-11-20T14:44:39;34.60;;;20.20;;
74523;SDS011;63074;44.696;10.358;2022-11-20T14:47:08;35.33;;;19.85;;
74523;SDS011;63074;44.696;10.358;2022-11-20T14:49:38;38.08;;;20.70;;
74523;SDS011;63074;44.696;10.358;2022-11-20T14:52:15;40.03;;;22.52;;
74523;SDS011;63074;44.696;10.358;2022-11-20T14:54:47;37.85;;;21.85;;
74523;SDS011;63074;44.696;10.358;2022-11-20T14:59:51;40.50;;;23.42;;
74523;SDS011;63074;44.696;10.358;2022-11-20T15:02:52;40.88;;;23.50;;
74523;SDS011;63074;44.696;10.358;2022-11-20T15:05:23;43.03;;;22.63;;
74523;SDS011;63074;44.696;10.358;2022-11-20T15:08:15;35.25;;;21.25;;
74523;SDS011;63074;44.696;10.358;2022-11-20T15:10:45;39.13;;;21.85;;
74523;SDS011;63074;44.696;10.358;2022-11-20T15:13:39;43.92;;;23.92;;
74523;SDS011;63074;44.696;10.358;2022-11-20T15:16:12;39.72;;;22.27;;
74523;SDS011;63074;44.696;10.358;2022-11-20T15:18:45;41.03;;;23.23;;
74523;SDS011;63074;44.696;10.358;2022-11-20T15:21:12;41.85;;;22.27;;
74523;SDS011;63074;44.696;10.358;2022-11-20T15:23:43;42.42;;;23.38;;
74523;SDS011;63074;44.696;10.358;2022-11-20T15:26:10;47.05;;;24.27;;
74523;SDS011;63074;44.696;10.358;2022-11-20T15:28:49;48.42;;;25.77;;
74523;SDS011;63074;44.696;10.358;2022-11-20T15:31:22;47.30;;;26.52;;
74523;SDS011;63074;44.696;10.358;2022-11-20T15:33:52;47.30;;;27.40;;
74523;SDS011;63074;44.696;10.358;2022-11-20T15:36:18;49.33;;;26.25;;
74523;SDS011;63074;44.696;10.358;2022-11-20T15:38:47;47.35;;;25.55;;
74523;SDS011;63074;44.696;10.358;2022-11-20T15:41:39;47.97;;;26.88;;
74523;SDS011;63074;44.696;10.358;2022-11-20T15:44:05;48.05;;;26.70;;
74523;SDS011;63074;44.696;10.358;2022-11-20T15:46:40;63.88;;;33.58;;
74523;SDS011;63074;44.696;10.358;2022-11-20T15:49:15;51.42;;;29.15;;
74523;SDS011;63074;44.696;10.358;2022-11-20T15:51:59;54.15;;;30.10;;
74523;SDS011;63074;44.696;10.358;2022-11-20T15:54:28;58.50;;;31.67;;
74523;SDS011;63074;44.696;10.358;2022-11-20T15:56:57;52.65;;;29.13;;
74523;SDS011;63074;44.696;10.358;2022-11-20T15:59:25;70.60;;;38.22;;
74523;SDS011;63074;44.696;10.358;2022-11-20T16:01:52;63.45;;;36.80;;
74523;SDS011;63074;44.696;10.358;2022-11-20T16:04:18;54.08;;;30.58;;
74523;SDS011;63074;44.696;10.358;2022-11-20T16:06:46;56.55;;;30.13;;
74523;SDS011;63074;44.696;10.358;2022-11-20T16:09:13;55.97;;;30.95;;
74523;SDS011;63074;44.696;10.358;2022-11-20T16:11:42;57.00;;;32.35;;
74523;SDS011;63074;44.696;10.358;2022-11-20T16:14:11;51.35;;;29.00;;
74523;SDS011;63074;44.696;10.358;2022-11-20T16:16:59;56.13;;;30.45;;
74523;SDS011;63074;44.696;10.358;2022-11-20T16:19:29;56.05;;;31.85;;
74523;SDS011;63074;44.696;10.358;2022-11-20T16:21:56;53.72;;;28.73;;
74523;SDS011;63074;44.696;10.358;2022-11-20T16:24:25;66.55;;;38.10;;
74523;SDS011;63074;44.696;10.358;2022-11-20T16:26:55;64.20;;;33.83;;
74523;SDS011;63074;44.696;10.358;2022-11-20T16:29:24;55.58;;;29.52;;
74523;SDS011;63074;44.696;10.358;2022-11-20T16:31:53;58.67;;;30.95;;
74523;SDS011;63074;44.696;10.358;2022-11-20T16:34:24;61.05;;;32.25;;
74523;SDS011;63074;44.696;10.358;2022-11-20T16:36:53;65.38;;;34.50;;
74523;SDS011;63074;44.696;10.358;2022-11-20T16:39:19;60.22;;;31.95;;
74523;SDS011;63074;44.696;10.358;2022-11-20T16:41:49;56.05;;;30.77;;
74523;SDS011;63074;44.696;10.358;2022-11-20T16:44:18;54.58;;;31.27;;
74523;SDS011;63074;44.696;10.358;2022-11-20T16:46:47;62.03;;;30.95;;
74523;SDS011;63074;44.696;10.358;2022-11-20T16:49:13;62.03;;;31.58;;
74523;SDS011;63074;44.696;10.358;2022-11-20T16:51:42;57.63;;;30.85;;
74523;SDS011;63074;44.696;10.358;2022-11-20T16:54:12;57.30;;;31.88;;
74523;SDS011;63074;44.696;10.358;2022-11-20T16:56:41;55.47;;;31.17;;
74523;SDS011;63074;44.696;10.358;2022-11-20T16:59:07;56.58;;;32.00;;
74523;SDS011;63074;44.696;10.358;2022-11-20T17:01:37;57.42;;;29.00;;
74523;SDS011;63074;44.696;10.358;2022-11-20T17:04:07;61.70;;;32.20;;
74523;SDS011;63074;44.696;10.358;2022-11-20T17:06:38;59.35;;;28.77;;
74523;SDS011;63074;44.696;10.358;2022-11-20T17:09:13;59.80;;;31.38;;
74523;SDS011;63074;44.696;10.358;2022-11-20T17:11:42;57.38;;;31.85;;
74523;SDS011;63074;44.696;10.358;2022-11-20T17:14:11;60.80;;;31.23;;
74523;SDS011;63074;44.696;10.358;2022-11-20T17:16:38;60.08;;;32.90;;
74523;SDS011;63074;44.696;10.358;2022-11-20T17:19:04;59.47;;;31.90;;
74523;SDS011;63074;44.696;10.358;2022-11-20T17:21:34;64.55;;;32.55;;
74523;SDS011;63074;44.696;10.358;2022-11-20T17:24:05;74.38;;;40.55;;
74523;SDS011;63074;44.696;10.358;2022-11-20T17:26:36;59.35;;;31.42;;
74523;SDS011;63074;44.696;10.358;2022-11-20T17:29:08;57.78;;;29.17;;
74523;SDS011;63074;44.696;10.358;2022-11-20T17:31:43;56.38;;;29.48;;
74523;SDS011;63074;44.696;10.358;2022-11-20T17:34:19;54.78;;;28.70;;
74523;SDS011;63074;44.696;10.358;2022-11-20T17:36:48;53.00;;;27.80;;
74523;SDS011;63074;44.696;10.358;2022-11-20T17:39:17;50.10;;;26.50;;
74523;SDS011;63074;44.696;10.358;2022-11-20T17:41:44;53.55;;;26.90;;
74523;SDS011;63074;44.696;10.358;2022-11-20T17:44:30;50.97;;;25.20;;
74523;SDS011;63074;44.696;10.358;2022-11-20T17:46:59;53.97;;;27.25;;
74523;SDS011;63074;44.696;10.358;2022-11-20T17:49:25;50.42;;;26.70;;
74523;SDS011;63074;44.696;10.358;2022-11-20T17:51:54;50.63;;;25.38;;
74523;SDS011;63074;44.696;10.358;2022-11-20T17:54:23;49.50;;;26.80;;
74523;SDS011;63074;44.696;10.358;2022-11-20T17:56:49;49.78;;;27.05;;
74523;SDS011;63074;44.696;10.358;2022-11-20T17:59:34;40.67;;;23.48;;
74523;SDS011;63074;44.696;10.358;2022-11-20T18:02:06;38.20;;;23.15;;
74523;SDS011;63074;44.696;10.358;2022-11-20T18:04:34;33.78;;;19.55;;
74523;SDS011;63074;44.696;10.358;2022-11-20T18:07:01;27.98;;;15.45;;
74523;SDS011;63074;44.696;10.358;2022-11-20T18:09:30;28.92;;;16.58;;
74523;SDS011;63074;44.696;10.358;2022-11-20T18:14:49;23.17;;;13.80;;
74523;SDS011;63074;44.696;10.358;2022-11-20T18:17:17;22.23;;;12.88;;
74523;SDS011;63074;44.696;10.358;2022-11-20T18:19:45;22.05;;;12.70;;
74523;SDS011;63074;44.696;10.358;2022-11-20T18:22:12;22.35;;;12.40;;
74523;SDS011;63074;44.696;10.358;2022-11-20T18:24:42;16.27;;;11.13;;
74523;SDS011;63074;44.696;10.358;2022-11-20T18:27:17;17.05;;;9.05;;
74523;SDS011;63074;44.696;10.358;2022-11-20T18:29:47;14.57;;;8.10;;
74523;SDS011;63074;44.696;10.358;2022-11-20T18:32:19;13.60;;;7.97;;
74523;SDS011;63074;44.696;10.358;2022-11-20T18:34:49;11.63;;;7.25;;
74523;SDS011;63074;44.696;10.358;2022-11-20T18:37:18;14.98;;;7.93;;
74523;SDS011;63074;44.696;10.358;2022-11-20T18:39:44;13.43;;;7.97;;
74523;SDS011;63074;44.696;10.358;2022-11-20T18:42:23;11.63;;;6.85;;
74523;SDS011;63074;44.696;10.358;2022-11-20T18:45:08;12.13;;;7.43;;
74523;SDS011;63074;44.696;10.358;2022-11-20T18:47:37;11.40;;;7.30;;
74523;SDS011;63074;44.696;10.358;2022-11-20T18:50:04;15.52;;;7.45;;
74523;SDS011;63074;44.696;10.358;2022-11-20T18:52:36;13.48;;;8.52;;
74523;SDS011;63074;44.696;10.358;2022-11-20T18:55:05;15.63;;;9.82;;
74523;SDS011;63074;44.696;10.358;2022-11-20T18:57:32;13.80;;;7.80;;
74523;SDS011;63074;44.696;10.358;2022-11-20T19:00:14;16.23;;;9.75;;
74523;SDS011;63074;44.696;10.358;2022-11-20T19:02:43;16.13;;;8.50;;
74523;SDS011;63074;44.696;10.358;2022-11-20T19:05:12;13.52;;;8.23;;
74523;SDS011;63074;44.696;10.358;2022-11-20T19:07:39;12.48;;;6.85;;
74523;SDS011;63074;44.696;10.358;2022-11-20T19:10:06;11.85;;;7.68;;
74523;SDS011;63074;44.696;10.358;2022-11-20T19:12:35;11.35;;;6.03;;
74523;SDS011;63074;44.696;10.358;2022-11-20T19:15:01;13.07;;;6.57;;
74523;SDS011;63074;44.696;10.358;2022-11-20T19:17:31;9.82;;;5.53;;
74523;SDS011;63074;44.696;10.358;2022-11-20T19:20:00;8.45;;;5.60;;
74523;SDS011;63074;44.696;10.358;2022-11-20T19:22:29;9.48;;;5.72;;
74523;SDS011;63074;44.696;10.358;2022-11-20T19:24:55;9.30;;;6.15;;
74523;SDS011;63074;44.696;10.358;2022-11-20T19:27:24;8.93;;;5.68;;
74523;SDS011;63074;44.696;10.358;2022-11-20T19:29:50;7.68;;;5.10;;
74523;SDS011;63074;44.696;10.358;2022-11-20T19:34:56;9.43;;;5.03;;
74523;SDS011;63074;44.696;10.358;2022-11-20T19:37:25;8.32;;;5.43;;
74523;SDS011;63074;44.696;10.358;2022-11-20T19:39:54;8.02;;;5.80;;
74523;SDS011;63074;44.696;10.358;2022-11-20T19:42:23;8.95;;;5.28;;